Main page
METAR-TAF:

METAR-TAF

Airports :

Liepāja International Airport

Liepāja, Latvia

latitude: 56-31N, longitude: 021-05E, elevation: 5 m

Current weather observation

The report was made 16 minutes ago, at 18:50 UTC
Wind 8 kt from the West, varying between West/Southwest and Northwest
Temperature 2°C
Humidity 64%
Pressure 1007 hPa
Visibility 10 km or more

METAR: EVLA 181850Z AUTO 28008KT 240V310 9999 BKN036/// BKN042/// BKN120/// 02/M04 Q1007

Time: 21:06 (19:06 UTC)

Forecast

The report was made 2 hours and 4 minutes ago, at 17:02 UTC
Forecast valid from 18 at 18 UTC to 19 at 18 UTC
Wind 7 kt from the West/Northwest
Visibility 10 km or more
Broken clouds at a height of 3000 ft
Temporary
from 18 at 18 UTC to 19 at 03 UTC
Wind 15 kt from the Northwest with gusts up to 26 kt
Visibility: 2000 m
Broken clouds at a height of 1000 ft, Cumulonimbus.
snow showers

TAF: EVLA 181702Z 1818/1918 30007KT 9999 BKN030 TEMPO 1818/1903 32015G26KT 2000 SHSN BKN010CB

Weather observations and forecasts of more than 4000 airports (METAR and TAF reports).

The available stations are represented by yellow and red dots on the map.

Hover mouse over dot to see the name of the station.

Then click to see weather observations and forecasts.

To change the map : click on the green buttons with a black cross to zoom in, on the green button with a dash to zoom out, or on the green arrows for adjacent maps.


METAR-TAF: